createdAt,value
2023-07-11T00:02:41.776Z,20.88
2023-07-11T00:05:29.993Z,21.48
2023-07-11T00:08:17.015Z,20.67
2023-07-11T00:10:57.765Z,20.90
2023-07-11T00:13:45.070Z,20.52
2023-07-11T00:16:31.970Z,20.45
2023-07-11T00:19:19.446Z,20.35
2023-07-11T00:22:05.967Z,20.50
2023-07-11T00:24:46.647Z,20.27
2023-07-11T00:27:34.002Z,18.63
2023-07-11T00:30:21.974Z,19.63
2023-07-11T00:33:09.030Z,18.60
2023-07-11T00:35:53.154Z,19.08
2023-07-11T00:38:39.948Z,19.73
2023-07-11T00:41:26.964Z,18.42
2023-07-11T00:44:22.982Z,19.55
2023-07-11T00:47:10.024Z,19.20
2023-07-11T00:49:55.919Z,18.95
2023-07-11T00:52:43.939Z,18.83
2023-07-11T00:55:30.968Z,18.98
2023-07-11T00:58:13.061Z,19.13
2023-07-11T01:01:01.048Z,19.85
2023-07-11T01:03:48.020Z,18.90
2023-07-11T01:06:36.968Z,19.77
2023-07-11T01:09:23.987Z,19.75
2023-07-11T01:12:09.970Z,19.50
2023-07-11T01:15:01.980Z,19.33
2023-07-11T01:17:48.939Z,20.13
2023-07-11T01:20:35.921Z,19.35
2023-07-11T01:23:22.952Z,20.80
2023-07-11T01:26:08.290Z,23.30
2023-07-11T01:28:54.965Z,23.48
2023-07-11T01:31:43.014Z,23.55
2023-07-11T01:34:22.974Z,24.15
2023-07-11T01:37:03.377Z,22.90
2023-07-11T01:39:49.923Z,24.17
2023-07-11T01:42:36.916Z,23.92
2023-07-11T01:45:17.976Z,23.80
2023-07-11T01:48:04.885Z,24.63
2023-07-11T01:50:51.957Z,23.27
2023-07-11T01:53:32.396Z,24.42
2023-07-11T01:56:19.945Z,23.33
2023-07-11T01:59:06.919Z,24.75
2023-07-11T02:01:47.070Z,23.55
2023-07-11T02:04:33.911Z,23.95
2023-07-11T02:07:14.997Z,22.63
2023-07-11T02:10:01.927Z,22.13
2023-07-11T02:12:41.969Z,22.75
2023-07-11T02:15:28.921Z,23.30
2023-07-11T02:18:09.347Z,22.00
2023-07-11T02:20:55.881Z,22.63
2023-07-11T02:23:36.059Z,21.70
2023-07-11T02:26:23.064Z,21.85
2023-07-11T02:29:02.934Z,21.63
2023-07-11T02:31:56.855Z,22.17
2023-07-11T02:34:37.270Z,20.92
2023-07-11T02:37:23.844Z,20.35
2023-07-11T02:40:10.850Z,20.55
2023-07-11T02:42:57.851Z,20.50
2023-07-11T02:45:44.885Z,21.13
2023-07-11T02:48:24.917Z,21.67
2023-07-11T02:51:11.814Z,20.27
2023-07-11T02:53:58.897Z,20.90
2023-07-11T02:56:39.327Z,21.05
2023-07-11T02:59:25.842Z,20.38
2023-07-11T03:02:06.617Z,20.38
2023-07-11T03:04:53.904Z,19.80
2023-07-11T03:07:34.700Z,21.45
2023-07-11T03:10:21.868Z,19.67
2023-07-11T03:13:08.872Z,19.35
2023-07-11T03:15:55.779Z,21.10
2023-07-11T03:18:36.143Z,20.27
2023-07-11T03:21:22.834Z,20.05
2023-07-11T03:24:03.247Z,18.27
2023-07-11T03:26:49.789Z,19.02
2023-07-11T03:29:30.243Z,20.33
2023-07-11T03:32:16.801Z,19.10
2023-07-11T03:35:02.945Z,18.48
2023-07-11T03:37:50.804Z,18.05
2023-07-11T03:40:37.886Z,18.98
2023-07-11T03:43:17.776Z,19.33
2023-07-11T03:45:58.275Z,19.92
2023-07-11T03:48:44.734Z,23.30
2023-07-11T03:51:25.214Z,23.40
2023-07-11T03:54:11.802Z,22.38
2023-07-11T03:56:59.734Z,21.52
2023-07-11T03:59:46.777Z,20.52
2023-07-11T04:02:33.903Z,21.45
2023-07-11T04:05:20.711Z,20.33
2023-07-11T04:08:07.768Z,20.52
2023-07-11T04:10:47.864Z,24.75
2023-07-11T04:13:34.770Z,22.13
2023-07-11T04:16:14.987Z,20.35
2023-07-11T04:19:01.795Z,20.70
2023-07-11T04:21:42.859Z,20.27
2023-07-11T04:24:29.765Z,23.00
2023-07-11T04:27:09.895Z,21.85
2023-07-11T04:29:56.732Z,24.73
2023-07-11T04:32:43.937Z,25.30
2023-07-11T04:35:23.806Z,23.88
2023-07-11T04:38:10.769Z,24.83
2023-07-11T04:40:51.895Z,22.42
2023-07-11T04:43:41.722Z,22.60
2023-07-11T04:46:21.990Z,22.00
2023-07-11T04:49:08.866Z,21.23
2023-07-11T04:51:55.678Z,19.73
2023-07-11T04:54:36.466Z,21.05
2023-07-11T04:57:23.752Z,20.50
2023-07-11T05:00:05.141Z,20.00
2023-07-11T05:02:51.760Z,20.65
2023-07-11T05:05:42.686Z,21.55
2023-07-11T05:08:29.682Z,20.70
2023-07-11T05:11:16.345Z,21.77
2023-07-11T05:14:04.717Z,22.20
2023-07-11T05:16:45.028Z,21.48
2023-07-11T05:19:31.738Z,22.48
2023-07-11T05:22:12.056Z,21.77
2023-07-11T05:24:58.682Z,26.67
2023-07-11T05:27:52.688Z,21.23
2023-07-11T05:30:46.726Z,21.77
2023-07-11T05:36:40.668Z,21.92
2023-07-11T05:39:27.631Z,22.98
2023-07-11T05:42:14.630Z,22.00
2023-07-11T05:45:02.694Z,22.50
2023-07-11T05:47:42.819Z,21.35
2023-07-11T05:50:29.621Z,21.52
2023-07-11T05:53:16.645Z,21.77
2023-07-11T05:56:04.913Z,21.33
2023-07-11T05:58:44.734Z,21.85
2023-07-11T06:01:34.703Z,22.05
2023-07-11T06:04:19.020Z,21.38
2023-07-11T06:07:05.652Z,22.45
2023-07-11T06:09:45.814Z,22.73
2023-07-11T06:12:32.585Z,22.65
2023-07-11T06:15:19.647Z,22.38
2023-07-11T06:17:59.979Z,23.45
2023-07-11T06:20:46.622Z,22.17
2023-07-11T06:23:27.038Z,22.40
2023-07-11T06:26:13.657Z,20.92
2023-07-11T06:29:00.630Z,20.77
2023-07-11T06:31:47.849Z,24.00
2023-07-11T06:34:27.566Z,20.52
2023-07-11T06:37:08.133Z,21.52
2023-07-11T06:39:54.598Z,21.10
2023-07-11T06:42:41.664Z,21.55
2023-07-11T06:45:28.608Z,20.88
2023-07-11T06:48:09.016Z,21.35
2023-07-11T06:50:55.631Z,22.67
2023-07-11T06:53:36.073Z,21.48
2023-07-11T06:56:23.569Z,22.50
2023-07-11T06:59:10.630Z,23.75
2023-07-11T07:01:57.618Z,22.38
2023-07-11T07:04:44.647Z,21.65
2023-07-11T07:07:24.673Z,24.00
2023-07-11T07:10:11.609Z,22.42
2023-07-11T07:12:51.674Z,23.13
2023-07-11T07:15:38.600Z,23.23
2023-07-11T07:18:18.751Z,21.50
2023-07-11T07:21:05.635Z,22.45
2023-07-11T07:23:52.614Z,22.88
2023-07-11T07:26:39.616Z,22.30
2023-07-11T07:29:26.577Z,22.95
2023-07-11T07:32:13.561Z,22.48
2023-07-11T07:35:00.596Z,22.15
2023-07-11T07:37:47.613Z,22.05
2023-07-11T07:40:35.709Z,22.40
2023-07-11T07:43:22.593Z,22.67
2023-07-11T07:46:11.610Z,22.55
2023-07-11T07:48:58.560Z,23.45
2023-07-11T07:51:45.535Z,22.27
2023-07-11T07:54:27.906Z,21.60
2023-07-11T07:57:14.541Z,23.05
2023-07-11T08:00:01.588Z,22.02
2023-07-11T08:02:50.588Z,21.30
2023-07-11T08:05:38.586Z,21.95
2023-07-11T08:08:25.519Z,22.55
2023-07-11T08:11:14.611Z,21.23
2023-07-11T08:14:01.631Z,21.10
2023-07-11T08:16:41.996Z,22.00
2023-07-11T08:19:28.574Z,21.58
2023-07-11T08:22:15.582Z,21.70
2023-07-11T08:25:02.558Z,21.05
2023-07-11T08:27:43.174Z,22.15
2023-07-11T08:30:29.610Z,21.90
2023-07-11T08:33:23.519Z,20.38
2023-07-11T08:36:10.745Z,22.52
2023-07-11T08:38:53.730Z,21.42
2023-07-11T08:41:57.549Z,21.30
2023-07-11T08:45:01.925Z,22.02
2023-07-11T08:48:01.642Z,20.15
2023-07-11T08:50:51.676Z,20.55
2023-07-11T08:53:43.509Z,21.10
2023-07-11T08:56:46.533Z,20.77
2023-07-11T08:59:49.519Z,20.50
2023-07-11T09:03:02.536Z,20.83
2023-07-11T09:06:10.644Z,21.02
2023-07-11T09:09:02.488Z,19.88
2023-07-11T09:12:10.878Z,20.17
2023-07-11T09:15:11.482Z,20.23
2023-07-11T09:18:01.536Z,20.92
2023-07-11T09:20:48.665Z,21.10
2023-07-11T09:35:33.983Z,21.90
2023-07-11T09:38:33.955Z,20.58
2023-07-11T09:41:22.061Z,20.35
2023-07-11T09:44:09.090Z,20.02
2023-07-11T09:46:56.000Z,20.95
2023-07-11T09:49:43.926Z,21.17
2023-07-11T09:52:51.966Z,20.27
2023-07-11T09:55:37.419Z,20.45
2023-07-11T09:58:29.907Z,20.63
2023-07-11T10:01:29.964Z,20.05
2023-07-11T10:04:14.095Z,21.23
2023-07-11T10:07:03.900Z,21.02
2023-07-11T10:09:52.059Z,19.70
2023-07-11T10:12:38.869Z,19.75
2023-07-11T10:15:30.846Z,19.65
2023-07-11T10:18:26.998Z,19.27
2023-07-11T10:21:21.882Z,20.25
2023-07-11T10:24:11.918Z,20.45
2023-07-11T10:27:02.922Z,20.20
2023-07-11T10:29:48.060Z,21.02
2023-07-11T10:32:47.906Z,19.25
2023-07-11T10:35:41.894Z,19.50
2023-07-11T10:38:44.492Z,19.42
2023-07-11T10:41:43.905Z,18.77
2023-07-11T10:44:36.810Z,19.92
2023-07-11T10:47:16.964Z,19.80
2023-07-11T10:50:05.942Z,19.88
2023-07-11T10:52:47.936Z,19.95
2023-07-11T10:55:42.847Z,20.08
2023-07-11T10:58:34.977Z,18.98
2023-07-11T11:02:03.848Z,18.92
2023-07-11T11:05:25.478Z,19.63
2023-07-11T11:08:21.875Z,19.27
2023-07-11T11:11:38.836Z,19.48
2023-07-11T11:14:43.843Z,20.40
2023-07-11T11:17:37.933Z,18.75
2023-07-11T11:20:30.856Z,18.40
2023-07-11T11:23:41.952Z,19.40
2023-07-11T11:26:49.806Z,19.20
2023-07-11T11:29:39.806Z,19.67
2023-07-11T11:32:34.952Z,18.80
2023-07-11T11:35:59.796Z,18.13
2023-07-11T11:39:05.336Z,18.00
2023-07-11T11:42:23.873Z,17.35
2023-07-11T11:51:12.849Z,15.95
2023-07-11T11:54:16.824Z,16.80
2023-07-11T11:57:06.823Z,16.55
2023-07-11T11:59:47.104Z,17.27
2023-07-11T12:02:47.853Z,17.05
2023-07-11T12:05:35.775Z,17.70
2023-07-11T12:08:36.821Z,18.73
2023-07-11T12:11:23.743Z,18.58
2023-07-11T12:14:32.797Z,18.35
2023-07-11T12:17:45.869Z,20.40
2023-07-11T12:20:34.805Z,18.15
2023-07-11T12:23:37.400Z,19.45
2023-07-11T12:26:32.723Z,19.50
2023-07-11T12:29:55.977Z,18.73
2023-07-11T12:32:46.843Z,19.70
2023-07-11T12:35:36.766Z,19.70
2023-07-11T12:38:26.461Z,19.00
2023-07-11T12:41:39.054Z,17.92
2023-07-11T12:44:29.761Z,17.55
2023-07-11T12:47:15.906Z,17.88
2023-07-11T12:50:03.870Z,16.85
2023-07-11T12:52:50.750Z,16.50
2023-07-11T12:55:31.460Z,16.45
2023-07-11T12:58:18.705Z,15.73
2023-07-11T13:01:00.143Z,16.27
2023-07-11T13:03:49.731Z,17.13
2023-07-11T13:06:34.055Z,16.48
2023-07-11T13:09:25.757Z,16.98
2023-07-11T13:12:11.684Z,15.73
2023-07-11T13:15:00.705Z,19.85
2023-07-11T13:17:49.763Z,30.05
2023-07-11T13:20:35.883Z,26.80
2023-07-11T13:23:22.725Z,26.73
2023-07-11T13:26:09.665Z,26.90
2023-07-11T13:29:14.702Z,25.38
2023-07-11T13:32:14.712Z,22.08
2023-07-11T13:35:22.342Z,18.90
2023-07-11T13:38:02.818Z,17.95
2023-07-11T13:40:50.701Z,21.17
2023-07-11T13:43:38.622Z,16.20
2023-07-11T13:46:23.248Z,15.43
2023-07-11T13:52:03.735Z,17.13
2023-07-11T13:54:47.670Z,14.32
2023-07-11T13:57:34.662Z,14.75
2023-07-11T14:00:16.527Z,14.70
2023-07-11T14:03:03.717Z,13.95
2023-07-11T14:05:43.762Z,14.95
2023-07-11T14:08:36.815Z,13.73
2023-07-11T14:11:22.815Z,13.95
2023-07-11T14:14:28.976Z,14.35
2023-07-11T14:17:31.714Z,14.10
2023-07-11T14:20:23.720Z,14.88
2023-07-11T14:23:03.625Z,15.73
2023-07-11T14:25:43.967Z,16.35
2023-07-11T14:28:31.612Z,16.58
2023-07-11T14:31:26.759Z,15.68
2023-07-11T14:34:06.758Z,14.63
2023-07-11T14:36:54.625Z,15.10
2023-07-11T14:39:41.611Z,16.02
2023-07-11T14:42:29.388Z,15.35
2023-07-11T14:45:16.761Z,13.88
2023-07-11T14:48:03.592Z,17.38
2023-07-11T14:50:43.742Z,15.60
2023-07-11T14:53:39.575Z,14.35
2023-07-11T14:59:35.607Z,16.50
2023-07-11T15:02:51.876Z,24.63
2023-07-11T15:11:38.825Z,26.92
2023-07-11T15:17:10.756Z,14.10
2023-07-11T15:19:57.649Z,13.05
2023-07-11T15:22:37.752Z,11.45
2023-07-11T15:25:43.626Z,14.10
2023-07-11T15:28:32.591Z,12.90
2023-07-11T15:31:23.722Z,12.43
2023-07-11T15:34:03.659Z,9.05
2023-07-11T15:36:50.779Z,9.40
2023-07-11T15:39:30.612Z,11.32
2023-07-11T15:42:26.615Z,10.10
2023-07-11T15:45:07.020Z,10.63
2023-07-11T15:47:53.642Z,10.18
2023-07-11T15:50:35.660Z,8.40
2023-07-11T15:53:22.580Z,8.48
2023-07-11T15:56:09.693Z,8.43
2023-07-11T15:58:56.549Z,8.45
2023-07-11T16:01:43.602Z,8.15
2023-07-11T16:04:26.850Z,10.27
2023-07-11T16:07:16.500Z,8.48
2023-07-11T16:09:57.045Z,9.07
2023-07-11T16:12:43.534Z,8.52
2023-07-11T16:15:35.588Z,7.72
2023-07-11T16:18:26.775Z,7.03
2023-07-11T16:21:07.856Z,9.82
2023-07-11T16:23:47.905Z,10.02
2023-07-11T16:26:38.762Z,8.43
2023-07-11T16:29:32.588Z,8.75
2023-07-11T16:32:15.728Z,8.18
2023-07-11T16:35:02.566Z,6.78
2023-07-11T16:37:42.674Z,8.95
2023-07-11T16:40:31.523Z,8.02
2023-07-11T16:43:12.625Z,6.57
2023-07-11T16:46:00.583Z,6.57
2023-07-11T16:48:47.536Z,6.80
2023-07-11T16:51:34.573Z,6.55
2023-07-11T16:54:24.605Z,6.57
2023-07-11T16:57:17.872Z,6.50
2023-07-11T17:00:04.533Z,7.43
2023-07-11T17:02:46.720Z,6.38
2023-07-11T17:05:34.518Z,8.07
2023-07-11T17:08:25.460Z,7.45
2023-07-11T17:11:13.502Z,6.53
2023-07-11T17:13:54.343Z,6.07
2023-07-11T17:16:43.529Z,6.95
2023-07-11T17:19:39.537Z,6.22
2023-07-11T17:22:20.567Z,5.90
2023-07-11T17:25:07.549Z,6.05
2023-07-11T17:27:58.463Z,5.07
2023-07-11T17:30:46.622Z,6.40
2023-07-11T17:33:36.265Z,8.13
2023-07-11T17:36:27.488Z,6.60
2023-07-11T17:39:31.518Z,5.18
2023-07-11T17:42:25.908Z,8.18
2023-07-11T17:48:16.378Z,6.07
2023-07-11T17:51:04.653Z,6.85
2023-07-11T17:53:44.523Z,6.53
2023-07-11T17:56:47.462Z,5.97
2023-07-11T17:59:34.741Z,5.82
2023-07-11T18:02:38.407Z,6.32
2023-07-11T18:05:32.439Z,6.32
2023-07-11T18:08:18.506Z,4.95
2023-07-11T18:11:05.827Z,5.75
2023-07-11T18:13:46.669Z,6.25
2023-07-11T18:16:36.489Z,3.72
2023-07-11T18:19:23.474Z,8.18
2023-07-11T18:22:03.524Z,4.72
2023-07-11T18:24:50.419Z,4.60
2023-07-11T18:27:36.490Z,4.85
2023-07-11T18:30:27.339Z,6.65
2023-07-11T18:33:07.672Z,4.13
2023-07-11T18:35:56.403Z,7.13
2023-07-11T18:38:36.506Z,4.53
2023-07-11T18:41:24.464Z,4.70
2023-07-11T18:44:11.394Z,5.72
2023-07-11T18:46:58.445Z,3.65
2023-07-11T18:49:45.376Z,4.93
2023-07-11T18:52:35.391Z,3.78
2023-07-11T18:55:18.590Z,3.28
2023-07-11T18:58:06.376Z,6.95
2023-07-11T19:00:50.199Z,5.50
2023-07-11T19:03:37.468Z,4.07
2023-07-11T19:06:23.494Z,3.60
2023-07-11T19:09:10.562Z,4.03
2023-07-11T19:11:50.505Z,4.18
2023-07-11T19:14:37.358Z,6.22
2023-07-11T19:17:44.468Z,4.15
2023-07-11T19:20:46.378Z,3.10
2023-07-11T19:23:42.357Z,4.18
2023-07-11T19:26:30.342Z,7.85
2023-07-11T19:29:17.365Z,4.10
2023-07-11T19:31:59.225Z,3.30
2023-07-11T19:34:46.365Z,4.43
2023-07-11T19:37:26.668Z,4.55
2023-07-11T19:40:14.338Z,6.05
2023-07-11T19:42:55.831Z,17.45
2023-07-11T19:45:50.434Z,15.82
2023-07-11T19:48:31.134Z,21.70
2023-07-11T19:51:18.265Z,20.92
2023-07-11T19:53:58.634Z,18.65
2023-07-11T19:56:45.347Z,16.02
2023-07-11T19:59:32.317Z,24.13
2023-07-11T20:02:28.440Z,20.63
2023-07-11T20:05:15.328Z,16.23
2023-07-11T20:08:02.338Z,24.60
2023-07-11T20:10:52.301Z,23.75
2023-07-11T20:13:33.416Z,23.92
2023-07-11T20:16:23.299Z,17.77
2023-07-11T20:19:17.294Z,18.33
2023-07-11T20:22:05.320Z,23.35
2023-07-11T20:24:54.367Z,20.58
2023-07-11T20:27:41.243Z,20.90
2023-07-11T20:30:24.442Z,23.33
2023-07-11T20:33:11.313Z,17.25
2023-07-11T20:35:54.402Z,22.52
2023-07-11T20:38:41.262Z,18.45
2023-07-11T20:41:22.492Z,18.70
2023-07-11T20:44:09.339Z,16.02
2023-07-11T20:46:49.442Z,27.20
2023-07-11T20:49:37.142Z,21.52
2023-07-11T20:52:18.368Z,22.95
2023-07-11T20:55:05.257Z,23.23
2023-07-11T20:57:52.266Z,20.60
2023-07-11T21:00:35.994Z,15.75
2023-07-11T21:03:32.235Z,17.63
2023-07-11T21:06:51.243Z,19.55
2023-07-11T21:09:38.289Z,20.17
2023-07-11T21:12:20.580Z,20.35
2023-07-11T21:15:08.247Z,16.27
2023-07-11T21:17:55.337Z,19.35
2023-07-11T21:33:27.575Z,20.98
2023-07-11T21:36:23.574Z,30.83
2023-07-11T21:39:03.612Z,19.60
2023-07-11T21:41:50.511Z,28.15
2023-07-11T21:44:37.504Z,20.17
2023-07-11T21:47:17.858Z,18.23
2023-07-11T21:50:04.503Z,19.38
2023-07-11T21:52:44.911Z,19.80
2023-07-11T21:55:31.457Z,25.60
2023-07-11T21:58:24.498Z,24.05
2023-07-11T22:01:04.602Z,27.35
2023-07-11T22:03:52.549Z,27.45
2023-07-11T22:06:35.627Z,26.63
2023-07-11T22:09:28.580Z,25.02
2023-07-11T22:12:08.601Z,23.55
2023-07-11T22:14:55.496Z,27.75
2023-07-11T22:17:42.519Z,29.70
2023-07-11T22:20:44.534Z,28.67
2023-07-11T22:23:24.581Z,25.60
2023-07-11T22:26:24.452Z,24.77
2023-07-11T22:29:04.736Z,27.73
2023-07-11T22:31:51.537Z,22.92
2023-07-11T22:34:31.652Z,20.73
2023-07-11T22:37:18.746Z,24.30
2023-07-11T22:40:05.615Z,18.35
2023-07-11T22:42:45.872Z,18.33
2023-07-11T22:45:32.425Z,16.27
2023-07-11T22:48:28.491Z,16.70
2023-07-11T22:51:14.868Z,16.17
2023-07-11T22:54:02.442Z,15.20
2023-07-11T22:56:49.411Z,13.52
2023-07-11T22:59:36.444Z,12.85
2023-07-11T23:02:23.421Z,13.55
2023-07-11T23:05:03.541Z,15.07
2023-07-11T23:07:50.410Z,13.55
2023-07-11T23:10:39.067Z,12.77
2023-07-11T23:13:25.432Z,12.85
2023-07-11T23:16:12.441Z,12.68
2023-07-11T23:18:53.020Z,14.00
2023-07-11T23:21:41.507Z,14.15
2023-07-11T23:24:21.748Z,13.38
2023-07-11T23:27:08.473Z,13.45
2023-07-11T23:29:48.762Z,13.23
2023-07-11T23:32:35.608Z,14.07
2023-07-11T23:35:18.098Z,14.55
2023-07-11T23:38:05.395Z,13.73
2023-07-11T23:40:50.979Z,13.98
2023-07-11T23:43:43.412Z,16.13
2023-07-11T23:46:35.467Z,14.80
2023-07-11T23:49:20.604Z,16.38
2023-07-11T23:52:07.409Z,16.88
2023-07-11T23:54:47.436Z,16.00
2023-07-11T23:57:34.351Z,16.80
